sensor_id;sensor_type;location;lat;lon;timestamp;temperature;humidity
19496;DHT22;9888;48.606;9.630;2023-10-19T00:02:07;10.00;99.90
19496;DHT22;9888;48.606;9.630;2023-10-19T00:04:45;10.00;99.90
19496;DHT22;9888;48.606;9.630;2023-10-19T00:07:13;10.00;99.90
19496;DHT22;9888;48.606;9.630;2023-10-19T00:09:44;10.00;99.90
19496;DHT22;9888;48.606;9.630;2023-10-19T00:12:14;10.00;99.90
19496;DHT22;9888;48.606;9.630;2023-10-19T00:14:44;10.10;99.90
19496;DHT22;9888;48.606;9.630;2023-10-19T00:17:12;10.10;99.90
19496;DHT22;9888;48.606;9.630;2023-10-19T00:19:41;10.10;99.90
19496;DHT22;9888;48.606;9.630;2023-10-19T00:22:26;10.20;99.90
19496;DHT22;9888;48.606;9.630;2023-10-19T00:24:58;10.20;99.90
19496;DHT22;9888;48.606;9.630;2023-10-19T00:27:29;10.30;99.90
19496;DHT22;9888;48.606;9.630;2023-10-19T00:29:56;10.30;99.90
19496;DHT22;9888;48.606;9.630;2023-10-19T00:32:33;10.30;99.90
19496;DHT22;9888;48.606;9.630;2023-10-19T00:35:06;10.30;99.90
19496;DHT22;9888;48.606;9.630;2023-10-19T00:37:56;10.30;99.90
19496;DHT22;9888;48.606;9.630;2023-10-19T00:40:43;10.30;99.90
19496;DHT22;9888;48.606;9.630;2023-10-19T00:43:14;10.30;99.90
19496;DHT22;9888;48.606;9.630;2023-10-19T00:45:56;10.30;99.90
19496;DHT22;9888;48.606;9.630;2023-10-19T00:48:23;10.30;99.90
19496;DHT22;9888;48.606;9.630;2023-10-19T00:50:55;10.20;99.90
19496;DHT22;9888;48.606;9.630;2023-10-19T00:53:39;10.20;99.90
19496;DHT22;9888;48.606;9.630;2023-10-19T00:56:08;10.20;99.90
19496;DHT22;9888;48.606;9.630;2023-10-19T00:58:38;10.20;99.90
19496;DHT22;9888;48.606;9.630;2023-10-19T01:01:07;10.20;99.90
19496;DHT22;9888;48.606;9.630;2023-10-19T01:03:36;10.20;99.90
19496;DHT22;9888;48.606;9.630;2023-10-19T01:06:05;10.20;99.90
19496;DHT22;9888;48.606;9.630;2023-10-19T01:08:38;10.20;99.90
19496;DHT22;9888;48.606;9.630;2023-10-19T01:11:11;10.20;99.90
19496;DHT22;9888;48.606;9.630;2023-10-19T01:13:42;10.20;99.90
19496;DHT22;9888;48.606;9.630;2023-10-19T01:16:16;10.20;99.90
19496;DHT22;9888;48.606;9.630;2023-10-19T01:18:53;10.20;99.90
19496;DHT22;9888;48.606;9.630;2023-10-19T01:21:22;10.30;99.90
19496;DHT22;9888;48.606;9.630;2023-10-19T01:23:55;10.40;99.90
19496;DHT22;9888;48.606;9.630;2023-10-19T01:26:23;10.40;99.90
19496;DHT22;9888;48.606;9.630;2023-10-19T01:28:53;10.40;99.90
19496;DHT22;9888;48.606;9.630;2023-10-19T01:31:28;10.40;99.90
19496;DHT22;9888;48.606;9.630;2023-10-19T01:34:00;10.40;99.90
19496;DHT22;9888;48.606;9.630;2023-10-19T01:36:36;10.40;99.90
19496;DHT22;9888;48.606;9.630;2023-10-19T01:39:09;10.40;99.90
19496;DHT22;9888;48.606;9.630;2023-10-19T01:41:38;10.50;99.90
19496;DHT22;9888;48.606;9.630;2023-10-19T01:44:08;10.50;99.90
19496;DHT22;9888;48.606;9.630;2023-10-19T01:46:41;10.50;99.90
19496;DHT22;9888;48.606;9.630;2023-10-19T01:49:16;10.60;99.90
19496;DHT22;9888;48.606;9.630;2023-10-19T01:51:53;10.60;99.90
19496;DHT22;9888;48.606;9.630;2023-10-19T01:54:23;10.60;99.90
19496;DHT22;9888;48.606;9.630;2023-10-19T01:56:57;10.60;99.90
19496;DHT22;9888;48.606;9.630;2023-10-19T01:59:24;10.60;99.90
19496;DHT22;9888;48.606;9.630;2023-10-19T02:01:56;10.60;99.90
19496;DHT22;9888;48.606;9.630;2023-10-19T02:04:26;10.60;99.90
19496;DHT22;9888;48.606;9.630;2023-10-19T02:06:53;10.60;99.90
19496;DHT22;9888;48.606;9.630;2023-10-19T02:09:21;10.60;99.90
19496;DHT22;9888;48.606;9.630;2023-10-19T02:11:55;10.60;99.90
19496;DHT22;9888;48.606;9.630;2023-10-19T02:14:24;10.60;99.90
19496;DHT22;9888;48.606;9.630;2023-10-19T02:16:54;10.60;99.90
19496;DHT22;9888;48.606;9.630;2023-10-19T02:19:27;10.60;99.90
19496;DHT22;9888;48.606;9.630;2023-10-19T02:22:03;10.70;99.90
19496;DHT22;9888;48.606;9.630;2023-10-19T02:24:32;10.70;99.90
19496;DHT22;9888;48.606;9.630;2023-10-19T02:27:02;10.80;99.90
19496;DHT22;9888;48.606;9.630;2023-10-19T02:29:29;10.70;99.90
19496;DHT22;9888;48.606;9.630;2023-10-19T02:31:58;10.70;99.90
19496;DHT22;9888;48.606;9.630;2023-10-19T02:34:30;10.80;99.90
19496;DHT22;9888;48.606;9.630;2023-10-19T02:36:58;10.80;99.90
19496;DHT22;9888;48.606;9.630;2023-10-19T02:39:27;10.90;99.90
19496;DHT22;9888;48.606;9.630;2023-10-19T02:41:59;10.90;99.90
19496;DHT22;9888;48.606;9.630;2023-10-19T02:44:29;11.00;99.90
19496;DHT22;9888;48.606;9.630;2023-10-19T02:46:57;11.00;99.90
19496;DHT22;9888;48.606;9.630;2023-10-19T02:49:32;11.00;99.90
19496;DHT22;9888;48.606;9.630;2023-10-19T02:52:08;11.00;99.90
19496;DHT22;9888;48.606;9.630;2023-10-19T02:54:41;11.00;99.90
19496;DHT22;9888;48.606;9.630;2023-10-19T02:57:09;11.00;99.90
19496;DHT22;9888;48.606;9.630;2023-10-19T02:59:38;11.00;99.90
19496;DHT22;9888;48.606;9.630;2023-10-19T03:02:06;11.00;99.90
19496;DHT22;9888;48.606;9.630;2023-10-19T03:04:42;11.00;99.90
19496;DHT22;9888;48.606;9.630;2023-10-19T03:07:10;10.90;99.90
19496;DHT22;9888;48.606;9.630;2023-10-19T03:09:41;10.90;99.90
19496;DHT22;9888;48.606;9.630;2023-10-19T03:12:22;10.90;99.90
19496;DHT22;9888;48.606;9.630;2023-10-19T03:14:53;10.90;99.90
19496;DHT22;9888;48.606;9.630;2023-10-19T03:17:20;10.90;99.90
19496;DHT22;9888;48.606;9.630;2023-10-19T03:19:47;10.90;99.90
19496;DHT22;9888;48.606;9.630;2023-10-19T03:22:15;10.80;99.90
19496;DHT22;9888;48.606;9.630;2023-10-19T03:24:47;10.80;99.90
19496;DHT22;9888;48.606;9.630;2023-10-19T03:27:16;10.80;99.90
19496;DHT22;9888;48.606;9.630;2023-10-19T03:29:51;10.80;99.90
19496;DHT22;9888;48.606;9.630;2023-10-19T03:32:26;10.60;99.90
19496;DHT22;9888;48.606;9.630;2023-10-19T03:34:54;10.60;99.90
19496;DHT22;9888;48.606;9.630;2023-10-19T03:37:34;10.60;99.90
19496;DHT22;9888;48.606;9.630;2023-10-19T03:40:02;10.50;99.90
19496;DHT22;9888;48.606;9.630;2023-10-19T03:42:34;10.40;99.90
19496;DHT22;9888;48.606;9.630;2023-10-19T03:45:07;10.40;99.90
19496;DHT22;9888;48.606;9.630;2023-10-19T03:47:41;10.40;99.90
19496;DHT22;9888;48.606;9.630;2023-10-19T03:50:11;10.30;99.90
19496;DHT22;9888;48.606;9.630;2023-10-19T03:52:47;10.20;99.90
19496;DHT22;9888;48.606;9.630;2023-10-19T03:55:14;10.10;99.90
19496;DHT22;9888;48.606;9.630;2023-10-19T03:57:45;10.00;99.90
19496;DHT22;9888;48.606;9.630;2023-10-19T04:00:34;9.90;99.90
19496;DHT22;9888;48.606;9.630;2023-10-19T04:03:03;10.00;99.90
19496;DHT22;9888;48.606;9.630;2023-10-19T04:05:31;10.10;99.90
19496;DHT22;9888;48.606;9.630;2023-10-19T04:08:02;10.00;99.90
19496;DHT22;9888;48.606;9.630;2023-10-19T04:10:40;9.90;99.90
19496;DHT22;9888;48.606;9.630;2023-10-19T04:13:34;9.90;99.90
19496;DHT22;9888;48.606;9.630;2023-10-19T04:16:06;9.80;99.90
19496;DHT22;9888;48.606;9.630;2023-10-19T04:18:37;9.80;99.90
19496;DHT22;9888;48.606;9.630;2023-10-19T04:21:10;9.70;99.90
19496;DHT22;9888;48.606;9.630;2023-10-19T04:23:37;9.70;99.90
19496;DHT22;9888;48.606;9.630;2023-10-19T04:26:06;9.70;99.90
19496;DHT22;9888;48.606;9.630;2023-10-19T04:28:42;9.70;99.90
19496;DHT22;9888;48.606;9.630;2023-10-19T04:31:17;9.80;99.90
19496;DHT22;9888;48.606;9.630;2023-10-19T04:33:45;9.70;99.90
19496;DHT22;9888;48.606;9.630;2023-10-19T04:36:13;9.70;99.90
19496;DHT22;9888;48.606;9.630;2023-10-19T04:38:42;9.70;99.90
19496;DHT22;9888;48.606;9.630;2023-10-19T04:41:11;9.70;99.90
19496;DHT22;9888;48.606;9.630;2023-10-19T04:43:40;9.70;99.90
19496;DHT22;9888;48.606;9.630;2023-10-19T04:46:11;9.70;99.90
19496;DHT22;9888;48.606;9.630;2023-10-19T04:48:39;9.70;99.90
19496;DHT22;9888;48.606;9.630;2023-10-19T04:51:09;9.70;99.90
19496;DHT22;9888;48.606;9.630;2023-10-19T04:53:36;9.70;99.90
19496;DHT22;9888;48.606;9.630;2023-10-19T04:56:05;9.70;99.90
19496;DHT22;9888;48.606;9.630;2023-10-19T04:58:38;9.70;99.90
19496;DHT22;9888;48.606;9.630;2023-10-19T05:01:05;9.70;99.90
19496;DHT22;9888;48.606;9.630;2023-10-19T05:03:32;9.70;99.90
19496;DHT22;9888;48.606;9.630;2023-10-19T05:08:55;9.80;99.90
19496;DHT22;9888;48.606;9.630;2023-10-19T05:11:24;9.90;99.90
19496;DHT22;9888;48.606;9.630;2023-10-19T05:13:51;10.00;99.90
19496;DHT22;9888;48.606;9.630;2023-10-19T05:16:19;10.00;99.90
19496;DHT22;9888;48.606;9.630;2023-10-19T05:18:46;10.00;99.90
19496;DHT22;9888;48.606;9.630;2023-10-19T05:21:15;10.00;99.90
19496;DHT22;9888;48.606;9.630;2023-10-19T05:23:43;10.10;99.90
19496;DHT22;9888;48.606;9.630;2023-10-19T05:26:11;10.10;99.90
19496;DHT22;9888;48.606;9.630;2023-10-19T05:28:41;10.20;99.90
19496;DHT22;9888;48.606;9.630;2023-10-19T05:31:09;10.20;99.90
19496;DHT22;9888;48.606;9.630;2023-10-19T05:33:38;10.20;99.90
19496;DHT22;9888;48.606;9.630;2023-10-19T05:36:08;10.20;99.90
19496;DHT22;9888;48.606;9.630;2023-10-19T05:38:35;10.30;99.90
19496;DHT22;9888;48.606;9.630;2023-10-19T05:41:03;10.30;99.90
19496;DHT22;9888;48.606;9.630;2023-10-19T05:43:32;10.40;99.90
19496;DHT22;9888;48.606;9.630;2023-10-19T05:46:03;10.50;99.90
19496;DHT22;9888;48.606;9.630;2023-10-19T05:48:31;10.60;99.90
19496;DHT22;9888;48.606;9.630;2023-10-19T05:50:58;10.70;99.90
19496;DHT22;9888;48.606;9.630;2023-10-19T05:53:25;10.70;99.90
19496;DHT22;9888;48.606;9.630;2023-10-19T05:55:52;10.70;99.90
19496;DHT22;9888;48.606;9.630;2023-10-19T05:58:19;10.80;99.90
19496;DHT22;9888;48.606;9.630;2023-10-19T06:00:46;10.80;99.90
19496;DHT22;9888;48.606;9.630;2023-10-19T06:03:13;10.80;99.90
19496;DHT22;9888;48.606;9.630;2023-10-19T06:05:41;10.80;99.90
19496;DHT22;9888;48.606;9.630;2023-10-19T06:08:09;10.90;99.90
19496;DHT22;9888;48.606;9.630;2023-10-19T06:10:36;11.00;99.90
19496;DHT22;9888;48.606;9.630;2023-10-19T06:13:06;11.10;99.90
19496;DHT22;9888;48.606;9.630;2023-10-19T06:15:35;11.20;99.90
19496;DHT22;9888;48.606;9.630;2023-10-19T06:18:03;11.30;99.90
19496;DHT22;9888;48.606;9.630;2023-10-19T06:20:32;11.40;99.90
19496;DHT22;9888;48.606;9.630;2023-10-19T06:22:59;11.40;99.90
19496;DHT22;9888;48.606;9.630;2023-10-19T06:25:35;11.60;99.90
19496;DHT22;9888;48.606;9.630;2023-10-19T06:28:02;11.80;99.90
19496;DHT22;9888;48.606;9.630;2023-10-19T06:30:31;12.10;99.90
19496;DHT22;9888;48.606;9.630;2023-10-19T06:32:59;12.20;99.90
19496;DHT22;9888;48.606;9.630;2023-10-19T06:35:30;12.50;99.90
19496;DHT22;9888;48.606;9.630;2023-10-19T06:38:04;12.60;99.90
19496;DHT22;9888;48.606;9.630;2023-10-19T06:40:34;12.70;99.90
19496;DHT22;9888;48.606;9.630;2023-10-19T06:43:05;12.70;99.90
19496;DHT22;9888;48.606;9.630;2023-10-19T06:45:32;12.70;99.90
19496;DHT22;9888;48.606;9.630;2023-10-19T06:48:00;12.70;99.90
19496;DHT22;9888;48.606;9.630;2023-10-19T06:50:27;12.70;99.90
19496;DHT22;9888;48.606;9.630;2023-10-19T06:52:54;12.70;99.90
19496;DHT22;9888;48.606;9.630;2023-10-19T06:55:21;12.60;99.90
19496;DHT22;9888;48.606;9.630;2023-10-19T06:57:53;12.60;99.90
19496;DHT22;9888;48.606;9.630;2023-10-19T07:00:23;12.60;99.90
19496;DHT22;9888;48.606;9.630;2023-10-19T07:02:56;12.60;99.90
19496;DHT22;9888;48.606;9.630;2023-10-19T07:05:23;12.60;99.90
19496;DHT22;9888;48.606;9.630;2023-10-19T07:07:53;12.60;99.90
19496;DHT22;9888;48.606;9.630;2023-10-19T07:10:21;12.70;99.90
19496;DHT22;9888;48.606;9.630;2023-10-19T07:12:53;12.70;99.90
19496;DHT22;9888;48.606;9.630;2023-10-19T07:15:21;12.80;99.90
19496;DHT22;9888;48.606;9.630;2023-10-19T07:21:10;12.90;99.90
19496;DHT22;9888;48.606;9.630;2023-10-19T07:23:40;13.00;99.90
19496;DHT22;9888;48.606;9.630;2023-10-19T07:26:07;13.00;99.90
19496;DHT22;9888;48.606;9.630;2023-10-19T07:28:35;13.10;99.90
19496;DHT22;9888;48.606;9.630;2023-10-19T07:31:06;13.10;99.90
19496;DHT22;9888;48.606;9.630;2023-10-19T07:33:42;13.10;99.90
19496;DHT22;9888;48.606;9.630;2023-10-19T07:36:16;13.20;99.90
19496;DHT22;9888;48.606;9.630;2023-10-19T07:38:45;13.20;99.90
19496;DHT22;9888;48.606;9.630;2023-10-19T07:41:17;13.30;99.90
19496;DHT22;9888;48.606;9.630;2023-10-19T07:43:47;13.30;99.90
19496;DHT22;9888;48.606;9.630;2023-10-19T07:46:15;13.30;99.90
19496;DHT22;9888;48.606;9.630;2023-10-19T07:48:43;13.40;99.90
19496;DHT22;9888;48.606;9.630;2023-10-19T07:51:12;13.40;99.90
19496;DHT22;9888;48.606;9.630;2023-10-19T07:53:40;13.50;99.90
19496;DHT22;9888;48.606;9.630;2023-10-19T07:56:09;13.50;99.90
19496;DHT22;9888;48.606;9.630;2023-10-19T07:58:37;13.60;99.90
19496;DHT22;9888;48.606;9.630;2023-10-19T08:01:13;13.60;99.90
19496;DHT22;9888;48.606;9.630;2023-10-19T08:03:39;13.70;99.90
19496;DHT22;9888;48.606;9.630;2023-10-19T08:06:06;13.70;99.90
19496;DHT22;9888;48.606;9.630;2023-10-19T08:08:35;13.70;99.90
19496;DHT22;9888;48.606;9.630;2023-10-19T08:11:03;13.80;99.90
19496;DHT22;9888;48.606;9.630;2023-10-19T08:13:31;13.90;99.90
19496;DHT22;9888;48.606;9.630;2023-10-19T08:15:59;14.00;99.90
19496;DHT22;9888;48.606;9.630;2023-10-19T08:18:26;14.10;99.90
19496;DHT22;9888;48.606;9.630;2023-10-19T08:20:55;14.20;99.90
19496;DHT22;9888;48.606;9.630;2023-10-19T08:23:25;14.30;99.90
19496;DHT22;9888;48.606;9.630;2023-10-19T08:25:54;14.40;99.90
19496;DHT22;9888;48.606;9.630;2023-10-19T08:28:21;14.50;99.90
19496;DHT22;9888;48.606;9.630;2023-10-19T08:30:48;14.50;99.90
19496;DHT22;9888;48.606;9.630;2023-10-19T08:33:27;14.50;99.90
19496;DHT22;9888;48.606;9.630;2023-10-19T08:35:58;14.60;99.90
19496;DHT22;9888;48.606;9.630;2023-10-19T08:38:28;14.70;99.90
19496;DHT22;9888;48.606;9.630;2023-10-19T08:40:56;14.80;99.90
19496;DHT22;9888;48.606;9.630;2023-10-19T08:43:24;14.90;99.90
19496;DHT22;9888;48.606;9.630;2023-10-19T08:45:54;15.00;99.90
19496;DHT22;9888;48.606;9.630;2023-10-19T08:48:23;15.20;99.90
19496;DHT22;9888;48.606;9.630;2023-10-19T08:50:52;15.30;99.90
19496;DHT22;9888;48.606;9.630;2023-10-19T08:53:21;15.40;99.90
19496;DHT22;9888;48.606;9.630;2023-10-19T08:55:50;15.80;99.90
19496;DHT22;9888;48.606;9.630;2023-10-19T08:58:21;16.20;99.90
19496;DHT22;9888;48.606;9.630;2023-10-19T09:00:52;16.60;99.90
19496;DHT22;9888;48.606;9.630;2023-10-19T09:03:23;17.00;99.90
19496;DHT22;9888;48.606;9.630;2023-10-19T09:05:53;17.80;99.90
19496;DHT22;9888;48.606;9.630;2023-10-19T09:08:20;19.10;99.90
19496;DHT22;9888;48.606;9.630;2023-10-19T09:10:49;19.90;99.90
19496;DHT22;9888;48.606;9.630;2023-10-19T09:13:19;20.40;99.90
19496;DHT22;9888;48.606;9.630;2023-10-19T09:15:49;21.00;99.90
19496;DHT22;9888;48.606;9.630;2023-10-19T09:18:26;21.40;99.90
19496;DHT22;9888;48.606;9.630;2023-10-19T09:20:57;21.30;99.90
19496;DHT22;9888;48.606;9.630;2023-10-19T09:23:55;21.00;99.90
19496;DHT22;9888;48.606;9.630;2023-10-19T09:26:23;20.90;99.90
19496;DHT22;9888;48.606;9.630;2023-10-19T09:28:52;21.00;99.90
19496;DHT22;9888;48.606;9.630;2023-10-19T09:31:21;20.80;99.90
19496;DHT22;9888;48.606;9.630;2023-10-19T09:33:50;20.40;99.90
19496;DHT22;9888;48.606;9.630;2023-10-19T09:36:19;20.10;99.90
19496;DHT22;9888;48.606;9.630;2023-10-19T09:38:51;20.00;99.90
19496;DHT22;9888;48.606;9.630;2023-10-19T09:41:23;19.90;99.90
19496;DHT22;9888;48.606;9.630;2023-10-19T09:44:01;19.80;99.90
19496;DHT22;9888;48.606;9.630;2023-10-19T09:46:33;19.50;99.90
19496;DHT22;9888;48.606;9.630;2023-10-19T09:49:03;19.30;99.90
19496;DHT22;9888;48.606;9.630;2023-10-19T09:51:31;19.10;99.90
19496;DHT22;9888;48.606;9.630;2023-10-19T09:54:14;19.00;99.90
19496;DHT22;9888;48.606;9.630;2023-10-19T09:56:59;18.80;99.90
19496;DHT22;9888;48.606;9.630;2023-10-19T09:59:37;18.50;99.90
19496;DHT22;9888;48.606;9.630;2023-10-19T10:02:12;18.40;99.90
19496;DHT22;9888;48.606;9.630;2023-10-19T10:04:41;18.30;99.90
19496;DHT22;9888;48.606;9.630;2023-10-19T10:07:09;18.20;99.90
19496;DHT22;9888;48.606;9.630;2023-10-19T10:09:41;18.10;99.90
19496;DHT22;9888;48.606;9.630;2023-10-19T10:12:22;17.90;99.90
19496;DHT22;9888;48.606;9.630;2023-10-19T10:15:04;17.60;99.90
19496;DHT22;9888;48.606;9.630;2023-10-19T10:17:39;17.40;99.90
19496;DHT22;9888;48.606;9.630;2023-10-19T10:20:29;17.20;99.90
19496;DHT22;9888;48.606;9.630;2023-10-19T10:23:24;17.10;99.90
19496;DHT22;9888;48.606;9.630;2023-10-19T10:25:53;17.00;99.90
19496;DHT22;9888;48.606;9.630;2023-10-19T10:31:51;17.00;99.90
19496;DHT22;9888;48.606;9.630;2023-10-19T10:37:05;17.30;99.90
19496;DHT22;9888;48.606;9.630;2023-10-19T10:39:35;17.40;99.90
19496;DHT22;9888;48.606;9.630;2023-10-19T10:42:05;17.60;99.90
19496;DHT22;9888;48.606;9.630;2023-10-19T10:44:46;17.70;99.90
19496;DHT22;9888;48.606;9.630;2023-10-19T10:47:18;17.80;99.90
19496;DHT22;9888;48.606;9.630;2023-10-19T10:49:51;18.00;99.90
19496;DHT22;9888;48.606;9.630;2023-10-19T10:52:36;18.10;99.90
19496;DHT22;9888;48.606;9.630;2023-10-19T10:55:11;18.20;99.90
19496;DHT22;9888;48.606;9.630;2023-10-19T10:57:39;18.20;99.90
19496;DHT22;9888;48.606;9.630;2023-10-19T11:00:08;18.30;99.90
19496;DHT22;9888;48.606;9.630;2023-10-19T11:03:02;18.40;99.90
19496;DHT22;9888;48.606;9.630;2023-10-19T11:05:42;18.40;99.90
19496;DHT22;9888;48.606;9.630;2023-10-19T11:08:18;18.30;99.90
19496;DHT22;9888;48.606;9.630;2023-10-19T11:10:48;18.20;99.90
19496;DHT22;9888;48.606;9.630;2023-10-19T11:13:16;18.10;99.90
19496;DHT22;9888;48.606;9.630;2023-10-19T11:15:56;18.00;99.90
19496;DHT22;9888;48.606;9.630;2023-10-19T11:18:30;17.80;99.90
19496;DHT22;9888;48.606;9.630;2023-10-19T11:21:00;17.60;99.90
19496;DHT22;9888;48.606;9.630;2023-10-19T11:26:11;17.20;99.90
19496;DHT22;9888;48.606;9.630;2023-10-19T11:28:40;17.00;99.90
19496;DHT22;9888;48.606;9.630;2023-10-19T11:31:17;16.80;99.90
19496;DHT22;9888;48.606;9.630;2023-10-19T11:33:46;16.70;99.90
19496;DHT22;9888;48.606;9.630;2023-10-19T11:36:21;16.60;99.90
19496;DHT22;9888;48.606;9.630;2023-10-19T11:38:53;16.50;99.90
19496;DHT22;9888;48.606;9.630;2023-10-19T11:41:21;16.40;99.90
19496;DHT22;9888;48.606;9.630;2023-10-19T11:43:50;16.40;99.90
19496;DHT22;9888;48.606;9.630;2023-10-19T11:46:21;16.40;99.90
19496;DHT22;9888;48.606;9.630;2023-10-19T11:48:50;16.40;99.90
19496;DHT22;9888;48.606;9.630;2023-10-19T11:51:17;16.40;99.90
19496;DHT22;9888;48.606;9.630;2023-10-19T11:53:51;16.40;99.90
19496;DHT22;9888;48.606;9.630;2023-10-19T11:56:18;16.30;99.90
19496;DHT22;9888;48.606;9.630;2023-10-19T11:58:47;16.30;99.90
19496;DHT22;9888;48.606;9.630;2023-10-19T12:01:15;16.30;99.90
19496;DHT22;9888;48.606;9.630;2023-10-19T12:03:45;16.40;99.90
19496;DHT22;9888;48.606;9.630;2023-10-19T12:06:14;16.40;99.90
19496;DHT22;9888;48.606;9.630;2023-10-19T12:08:54;16.30;99.90
19496;DHT22;9888;48.606;9.630;2023-10-19T12:11:26;16.30;99.90
19496;DHT22;9888;48.606;9.630;2023-10-19T12:13:54;16.20;99.90
19496;DHT22;9888;48.606;9.630;2023-10-19T12:16:21;16.00;99.90
19496;DHT22;9888;48.606;9.630;2023-10-19T12:18:51;16.00;99.90
19496;DHT22;9888;48.606;9.630;2023-10-19T12:21:23;16.10;99.90
19496;DHT22;9888;48.606;9.630;2023-10-19T12:23:54;16.10;99.90
19496;DHT22;9888;48.606;9.630;2023-10-19T12:26:24;16.10;99.90
19496;DHT22;9888;48.606;9.630;2023-10-19T12:28:51;16.10;99.90
19496;DHT22;9888;48.606;9.630;2023-10-19T12:31:18;16.20;99.90
19496;DHT22;9888;48.606;9.630;2023-10-19T12:33:46;16.30;99.90
19496;DHT22;9888;48.606;9.630;2023-10-19T12:36:13;16.30;99.90
19496;DHT22;9888;48.606;9.630;2023-10-19T12:38:56;16.30;99.90
19496;DHT22;9888;48.606;9.630;2023-10-19T12:41:24;16.30;99.90
19496;DHT22;9888;48.606;9.630;2023-10-19T12:43:52;16.30;99.90
19496;DHT22;9888;48.606;9.630;2023-10-19T12:46:24;16.20;99.90
19496;DHT22;9888;48.606;9.630;2023-10-19T12:48:57;16.20;99.90
19496;DHT22;9888;48.606;9.630;2023-10-19T12:51:25;16.10;99.90
19496;DHT22;9888;48.606;9.630;2023-10-19T12:53:53;16.00;99.90
19496;DHT22;9888;48.606;9.630;2023-10-19T12:56:21;16.00;99.90
19496;DHT22;9888;48.606;9.630;2023-10-19T12:58:51;15.90;99.90
19496;DHT22;9888;48.606;9.630;2023-10-19T13:01:17;15.90;99.90
19496;DHT22;9888;48.606;9.630;2023-10-19T13:03:48;15.90;99.90
19496;DHT22;9888;48.606;9.630;2023-10-19T13:06:19;15.80;99.90
19496;DHT22;9888;48.606;9.630;2023-10-19T13:08:48;15.80;99.90
19496;DHT22;9888;48.606;9.630;2023-10-19T13:11:15;15.90;99.90
19496;DHT22;9888;48.606;9.630;2023-10-19T13:13:43;15.90;99.90
19496;DHT22;9888;48.606;9.630;2023-10-19T13:16:11;16.00;99.90
19496;DHT22;9888;48.606;9.630;2023-10-19T13:18:38;16.00;99.90
19496;DHT22;9888;48.606;9.630;2023-10-19T13:21:06;16.10;99.90
19496;DHT22;9888;48.606;9.630;2023-10-19T13:23:38;16.10;99.90
19496;DHT22;9888;48.606;9.630;2023-10-19T13:26:05;16.10;99.90
19496;DHT22;9888;48.606;9.630;2023-10-19T13:28:43;16.10;99.90
19496;DHT22;9888;48.606;9.630;2023-10-19T13:31:11;16.20;99.90
19496;DHT22;9888;48.606;9.630;2023-10-19T13:33:40;16.20;99.90
19496;DHT22;9888;48.606;9.630;2023-10-19T13:36:11;16.30;99.90
19496;DHT22;9888;48.606;9.630;2023-10-19T13:38:42;16.40;99.90
19496;DHT22;9888;48.606;9.630;2023-10-19T13:41:09;16.40;99.90
19496;DHT22;9888;48.606;9.630;2023-10-19T13:43:40;16.50;99.90
19496;DHT22;9888;48.606;9.630;2023-10-19T13:46:10;16.50;99.90
19496;DHT22;9888;48.606;9.630;2023-10-19T13:48:38;16.50;99.90
19496;DHT22;9888;48.606;9.630;2023-10-19T13:51:06;16.40;99.90
19496;DHT22;9888;48.606;9.630;2023-10-19T13:53:40;16.50;99.90
19496;DHT22;9888;48.606;9.630;2023-10-19T13:56:11;16.40;99.90
19496;DHT22;9888;48.606;9.630;2023-10-19T13:58:39;16.40;99.90
19496;DHT22;9888;48.606;9.630;2023-10-19T14:01:08;16.30;99.90
19496;DHT22;9888;48.606;9.630;2023-10-19T14:03:39;16.20;99.90
19496;DHT22;9888;48.606;9.630;2023-10-19T14:06:16;16.20;99.90
19496;DHT22;9888;48.606;9.630;2023-10-19T14:08:44;16.20;99.90
19496;DHT22;9888;48.606;9.630;2023-10-19T14:11:11;16.30;99.90
19496;DHT22;9888;48.606;9.630;2023-10-19T14:16:43;16.20;99.90
19496;DHT22;9888;48.606;9.630;2023-10-19T14:19:11;16.20;99.90
19496;DHT22;9888;48.606;9.630;2023-10-19T14:21:41;16.20;99.90
19496;DHT22;9888;48.606;9.630;2023-10-19T14:24:11;16.00;99.90
19496;DHT22;9888;48.606;9.630;2023-10-19T14:26:39;15.90;99.90
19496;DHT22;9888;48.606;9.630;2023-10-19T14:29:09;15.90;99.90
19496;DHT22;9888;48.606;9.630;2023-10-19T14:31:37;15.70;99.90
19496;DHT22;9888;48.606;9.630;2023-10-19T14:34:05;15.70;99.90
19496;DHT22;9888;48.606;9.630;2023-10-19T14:36:33;15.80;99.90
19496;DHT22;9888;48.606;9.630;2023-10-19T14:39:01;15.90;99.90
19496;DHT22;9888;48.606;9.630;2023-10-19T14:41:28;16.00;99.90
19496;DHT22;9888;48.606;9.630;2023-10-19T14:44:00;16.10;99.90
19496;DHT22;9888;48.606;9.630;2023-10-19T14:46:32;16.00;99.90
19496;DHT22;9888;48.606;9.630;2023-10-19T14:48:59;16.00;99.90
19496;DHT22;9888;48.606;9.630;2023-10-19T14:51:30;15.80;99.90
19496;DHT22;9888;48.606;9.630;2023-10-19T14:53:58;15.70;99.90
19496;DHT22;9888;48.606;9.630;2023-10-19T14:56:27;15.60;99.90
19496;DHT22;9888;48.606;9.630;2023-10-19T14:58:54;15.50;99.90
19496;DHT22;9888;48.606;9.630;2023-10-19T15:01:25;15.40;99.90
19496;DHT22;9888;48.606;9.630;2023-10-19T15:03:52;15.30;99.90
19496;DHT22;9888;48.606;9.630;2023-10-19T15:06:18;15.30;99.90
19496;DHT22;9888;48.606;9.630;2023-10-19T15:08:46;15.20;99.90
19496;DHT22;9888;48.606;9.630;2023-10-19T15:11:17;15.20;99.90
19496;DHT22;9888;48.606;9.630;2023-10-19T15:13:48;15.20;99.90
19496;DHT22;9888;48.606;9.630;2023-10-19T15:16:16;15.20;99.90
19496;DHT22;9888;48.606;9.630;2023-10-19T15:18:44;15.20;99.90
19496;DHT22;9888;48.606;9.630;2023-10-19T15:21:12;15.20;99.90
19496;DHT22;9888;48.606;9.630;2023-10-19T15:23:41;15.20;99.90
19496;DHT22;9888;48.606;9.630;2023-10-19T15:26:08;15.20;99.90
19496;DHT22;9888;48.606;9.630;2023-10-19T15:28:37;15.20;99.90
19496;DHT22;9888;48.606;9.630;2023-10-19T15:31:06;15.20;99.90
19496;DHT22;9888;48.606;9.630;2023-10-19T15:33:33;15.30;99.90
19496;DHT22;9888;48.606;9.630;2023-10-19T15:36:01;15.50;99.90
19496;DHT22;9888;48.606;9.630;2023-10-19T15:38:28;15.70;99.90
19496;DHT22;9888;48.606;9.630;2023-10-19T15:40:56;15.90;99.90
19496;DHT22;9888;48.606;9.630;2023-10-19T15:43:24;16.00;99.90
19496;DHT22;9888;48.606;9.630;2023-10-19T15:45:51;15.90;99.90
19496;DHT22;9888;48.606;9.630;2023-10-19T15:48:18;15.80;99.90
19496;DHT22;9888;48.606;9.630;2023-10-19T15:50:45;15.70;99.90
19496;DHT22;9888;48.606;9.630;2023-10-19T15:53:13;15.70;99.90
19496;DHT22;9888;48.606;9.630;2023-10-19T15:55:41;15.60;99.90
19496;DHT22;9888;48.606;9.630;2023-10-19T15:58:07;15.50;99.90
19496;DHT22;9888;48.606;9.630;2023-10-19T16:00:36;15.30;99.90
19496;DHT22;9888;48.606;9.630;2023-10-19T16:03:05;15.10;99.90
19496;DHT22;9888;48.606;9.630;2023-10-19T16:05:32;15.00;99.90
19496;DHT22;9888;48.606;9.630;2023-10-19T16:07:59;14.80;99.90
19496;DHT22;9888;48.606;9.630;2023-10-19T16:10:27;14.70;99.90
19496;DHT22;9888;48.606;9.630;2023-10-19T16:12:54;14.60;99.90
19496;DHT22;9888;48.606;9.630;2023-10-19T16:15:21;14.60;99.90
19496;DHT22;9888;48.606;9.630;2023-10-19T16:17:50;14.50;99.90
19496;DHT22;9888;48.606;9.630;2023-10-19T16:20:17;14.40;99.90
19496;DHT22;9888;48.606;9.630;2023-10-19T16:22:45;14.30;99.90
19496;DHT22;9888;48.606;9.630;2023-10-19T16:25:12;14.30;99.90
19496;DHT22;9888;48.606;9.630;2023-10-19T16:27:40;14.20;99.90